Huvudsida
METAR-TAF:

METAR-TAF

Flygplatser :

Ondangwa, Namibia

latitud: 17-52-42S, longitud: 015-57-09E, höjd: 1096 m

Aktuellt väderrapport

Denna rapport gjordes för 1 timme och 2 minuter sedan, klockan 09:00 UTC
Vind 11 kt från ost/nordost
Temperatur 23°C
Fuktighet 33%
Tryck 1022 hPa
Sikt 10 km eller mer
Inga moln under 1 500 m eller inga cumulonimbus

METAR: FYOA 250900Z 07011KT CAVOK 23/06 Q1022

Tid: 12:02 (10:02 UTC)

Väderprognos

Denna rapport gjordes för 17 timmar och 2 minuter sedan, klockan 17:00 UTC
Prognos gäller från 24 kl. 18 UTC till 25 kl. 03 UTC
Vind 9 kt från ost/sydost
Sikt 10 km eller mer
Inga moln under 1 500 m eller inga cumulonimbus

TAF: FYOA 241700Z 2418/2503 12009KT CAVOK

Aktuella väderrapporter och prognoser från 4000 flygplatser (METAR- och TAF-rapporter).

De tillgängliga stationerna syns som gula och röda prickar på kartan.

För musen över prickarna för att se namnen på stationerna.

Klicka sedan för att få väderrapporter och prognoser.

För att ändra kartan: Klicka på de gröna knapparna med ett svart kors på för att zooma in; den gröna knappen med ett streck på för att zooma ut; eller på de gröna pilarna för angränsande kartor.


METAR-TAF: